Timeline UpdatesTrip UpdatesNews PostsPvt PostsTravel TipsAdmin PostsConv PostsFollowed PostsChat RequestsBlog PostsPNR Posts

Disclaimer
Search
 
 
Wed Jul 23, 2014 01:06:55 ISTHomeTrainsΣChainsAtlasPNRForumGalleryNewsFAQTripsMembersLoginFeedback
No Recent News for this Train
Other Trains in the News **new
Latest...
Rung wit BE
Thu Jul 18, 2013 (08:22AM)
⇐ Return Journey: Train# 16688

16687 slip route⇒16687/Navyug Express

Dec 31 2013 (1:35PM)
Change Departure Station:
Change Arrival Station:
Post a Train Travel TipPost a Train Travel Tip **new
Post a Comment/Question/Picture/VideoPost a Comment/Question/Picture/Video
Pantry/Catering
✓ Pantry Car Avbl
✓ Catering Avbl
Good Food
RSA - Rake Sharing
NO RSA
Rake/Coach Composition
LOCO-HCPV-SLR-UR-A2-S9-S8-S7-S6-PC-S5-S4-S3-S2-S1-A1-B1-B2-UR-UR-SLR
Loco
WDM3A ERS shed MAQ-SRR SRR to NDLS - WAP 4 WDM3A TKD...
Read more...
Shed frm NDLS 2 JAT
News    PNR    Forum    Time-Table    Availability    Fare Chart    Map    Arr/Dep History    Trips    Gallery    ΣChains    X/O    Timeline    
Travel Time: 0h 32m    0 halts    Distance: 9 km    Avg Speed: 16 km/hr
Type: Mail/Express
Zone: SR/Southern
Departs @ 12:38
Platform# 1
    T  
Bari Brahman/BBMN 
Arrives @ 13:10
Platform# 3
    T  
Jammu Tawi/JAT 

0 halts. 0 intermediate Stations between Bari Brahman and Jammu Tawi

Show ALL intermediate Stations  Show Old Time-Table

#CodeStation NameX/OArrivesAvgDepartsAvgHaltPFDay#KmSpeedElevZoneAddress
1MAQMangalore Central (4)  -16:50-21-3600.16414mSRMangalore 575001, Karnataka
2KGQKasaragod (3)O  17:33-17:35-2m--1-3554.45718mSRTel: 04994 220800, Kerala
3CANKannur Main (3)X  19:05-19:10-5m31-3468.36914mSRKannur Tel: 0497 2705555, Kerala
4TLYThalassery (2)  19:28-19:30-2m--1-3447.7559mSRKannur, Kerala
5CLTKozhikode Main (4)  20:45-20:50-5m--1-3379.35811mSRCalicut Tel: 0495 2701234, Kerala
6SRRShoranur Junction (7)  22:20-22:30-10m41-3293.05926mSRShoranur ph.no 0466-2222913, Kerala
7PGTPalakkad Junction (4)  23:15-23:20-5m31-3248.74184mSRPalghat Tel: 0491 2555231, Kerala
8CBECoimbatore Main Junction (6)  00:41-00:45-4m--2-3192.971416mSRCoimbatore 641001, Tamil Nadu
9TUPTiruppur (2)  01:28-01:30-2m22-3142.346305mSRTiruppur. Ph:0421-2200450, Tamil Nadu
10EDErode Junction (4)XO  02:35-03:05-30m12-3092.474175mSRErode ph.no: 0424-2256111, Tamil Nadu
11SASalem Junction (6)X  03:55-04:00-5m--2-3030.756283mSRSalem, Tamil Nadu
12JTJJolarpettai Junction (5)  06:08-06:10-2m--2-2910.569405mSRJolarpettai, Tamil Nadu
13KPDKatpadi Junction (5)  07:23-07:25-2m--2-2826.647213mSRVellore 632007, Tamil Nadu
14CTOChittoor (3)X  08:07-08:08-1m--2-2793.651305mSCR517001., Andhra Pradesh
15TPTYTirupati Main (5)  09:33-09:35-2m--2-2721.740150mSCRChittoor Distt, Andhra Pradesh
16RURenigunta Junction (5)  09:50-10:00-10m--2-2711.851113mSCRChittoor District, Andhra Pradesh
17GDRGudur Junction (3)XO  11:38-11:40-2m22-2628.4-19mSCRGudur, Andhra Pradesh
18NLRNellore (4)  11:50-11:51-1m22-2589.98121mSCRNellore, Andhra Pradesh
19OGLOngole (3)  13:18-13:19-1m12-2473.28612mSCROngole, Andhra Pradesh
20TELTenali Junction (5)XO  14:34-14:35-1m42-2366.12216mSCRTel: 08644-227834, Andhra Pradesh
21BZAVijayawada Junction (10)X  16:00-16:20-20m--2-2334.98624mSCRVijayawada 520001, Andhra Pradesh
22KMTKhammam (2)  17:30-17:32-2m22-2234.550118mSCRKhammam 507001, Telangana
23WLWarangal (3)  19:40-19:45-5m22-2126.976271mSCRWarangal., Telangana
24RDMRamagundam (3)  21:05-21:06-1m12-2025.859170mSCRKarimnagar Dist. Ph : 08728 - 255237, Telangana
25BPQBalharshah Junction (5)  23:30-23:40-10m--2-1884.052188mCRBallarpur. Ph : 07172 - 240341, Maharashtra
26CDChandrapur Maharashtra (3)  23:56-23:57-1m--2-1870.273194mCRChandrapur 442401, Maharashtra
27SEGMSewagram Junction (5)X  01:34-01:36-2m--3-1751.666279mCRWardha, Maharashtra
28NGPNagpur Junction (8)  02:45-02:55-10m13-1675.466314mCRNagpur 440001, Maharashtra
29ETItarsi Junction (7)X  07:25-07:30-5m--3-1378.352329mWCRItarsi 461111, Madhya Pradesh
30BPLBhopal Junction (6)O  09:15-09:20-5m23-1286.662497mWCRBhopal, Madhya Pradesh
31JHSJhansi Junction (7)XO  14:02-14:10-8m--3-994.873259mNCRJhansi, Uttar Pradesh
32GWLGwalior Junction (4)X  15:30-15:35-5m43-897.183214mNCRGwalior, Madhya Pradesh
33DHODholpur Junction (3)X  16:22-16:24-2m13-831.752177mNCRDholpur, Rajasthan
34AGCAgra Cantt. (6)  17:25-17:30-5m33-779.167174mNCRAgra, Uttar Pradesh
35FDBFaridabad (4)  20:00-20:01-1m23-612.232206mNRold Faridabad, Haryana
36NZMDelhi Hazrat Nizamuddin (7)XO  20:40-21:10-30m13-591.415209mNRNizamuddin East/Sarai KaleKhan Bus Terminal, Delhi NCT
37NDLSNew Delhi (16)  21:40-00:10-150m53-584.020215mNRNew Delhi, Delhi NCT
38SSBShakur Basti  00:42-00:44-2m--4-573.270216mNRPitampura, Delhi NCT
39BGZBahadurgarh  01:01-01:02-1m--4-553.273220mNRBahadurgarh, Haryana
40ROKRohtak Junction (3)  01:35-01:40-5m--4-513.062220mNRRohtak, Haryana
41JINDJind Junction (3)  02:35-02:40-5m--4-455.978222mNR126102., Haryana
42NRWNarwana Junction (4)  03:06-03:07-1m--4-422.073235mNRWay to Narwana, Haryana
43TUNTohana (2)X  03:28-03:29-1m--4-396.520232mNRTohana, Haryana
44JHLJakhal JunctionO  04:05-04:10-5m--4-384.385225mNRJakhal, Haryana
45LHALehra Gaga (1)  04:22-04:24-2m14-367.371227mNRSangrur, Punjab
46SFMSunam (1)O  04:42-04:44-2m14-346.064235mNRSunam, Punjab
47SAGSangrur (2)X  04:56-04:58-2m24-333.230239mNRSangrur, Punjab
48DUIDhuri Junction (4)  05:30-05:35-5m--4-317.278248mNRDhuri, Punjab
49METMalerkotla (2)XO  05:48-05:50-2m--4-300.470248mNRMalerkotla., Punjab
50AHHAhmadgarh (1)X  06:07-06:09-2m14-280.527256mNRAhmedgarh, Punjab
51QRPKila Raipur (1)  06:26-06:28-2m14-272.948262mNRDelhon Pakhowal Rd, Punjab
52LDHLudhiana Junction (7)X  06:50-07:00-10m44-255.134246mNRLudhiana 141001, Punjab
53PHRPhillaur Junction (3)X  07:23-07:25-2m24-242.175246mNRPhillaur, Punjab
54PGWPhagwara Junction (3)X  07:43-07:45-2m24-219.565245mNRPhagwara, Punjab
55JRCJalandhar Cantt. Junction (3)O  08:00-08:05-5m34-203.263239mNRNear Rama Mandi, Punjab
56TDOTanda Urmar (3)  08:45-08:47-2m14-160.966239mNRUrmar Tanda, Punjab
57DZADasuya (2)  09:01-09:03-2m14-145.656251mNRDasuya distt. hoshiarpur, Punjab
58MEXMukerian (3)X  09:19-09:21-2m24-130.535257mNRMukerian distt. hosiharpur, Punjab
59PTKCPathankot Cantt (3)X  10:30-10:35-5m24-90.732328mNRPathankot By Pass Ph:0186-2251594, Punjab
60KTHUKathua (2)X  11:19-11:21-2m14-67.562396mNRdistt. kathua, Jammu and Kashmir
61SMBXSamba (2)  12:03-12:05-2m24-23.946365mNRDist. Samba, Jammu and Kashmir
62BBMN»Bari Brahman (2)»  12:36-12:38-2m140.016333mNRdistt. samba, Jammu and Kashmir
63JAT•Jammu Tawi (3)•  13:10--348.7-337mNRJammu 180002, Jammu and Kashmir
Scroll to Top
Scroll to Bottom